sensor_id;sensor_type;location;lat;lon;timestamp;pressure;altitude;pressure_sealevel;temperature;humidity
61039;BME280;46919;45.816;3.104;2024-03-02T00:01:51;96521.75;;;8.70;79.98
61039;BME280;46919;45.816;3.104;2024-03-02T00:04:16;96521.75;;;8.70;80.06
61039;BME280;46919;45.816;3.104;2024-03-02T00:06:42;96518.03;;;8.71;79.67
61039;BME280;46919;45.816;3.104;2024-03-02T00:09:09;96529.59;;;8.72;79.78
61039;BME280;46919;45.816;3.104;2024-03-02T00:11:37;96528.78;;;8.71;79.43
61039;BME280;46919;45.816;3.104;2024-03-02T00:14:03;96531.00;;;8.74;79.35
61039;BME280;46919;45.816;3.104;2024-03-02T00:16:31;96529.09;;;8.75;79.28
61039;BME280;46919;45.816;3.104;2024-03-02T00:19:05;96533.69;;;8.74;79.20
61039;BME280;46919;45.816;3.104;2024-03-02T00:21:31;96539.56;;;8.71;79.47
61039;BME280;46919;45.816;3.104;2024-03-02T00:23:57;96532.06;;;8.73;79.47
61039;BME280;46919;45.816;3.104;2024-03-02T00:26:23;96526.66;;;8.73;79.26
61039;BME280;46919;45.816;3.104;2024-03-02T00:28:48;96516.94;;;8.72;79.61
61039;BME280;46919;45.816;3.104;2024-03-02T00:31:15;96522.25;;;8.67;79.98
61039;BME280;46919;45.816;3.104;2024-03-02T00:33:45;96530.09;;;8.68;79.69
61039;BME280;46919;45.816;3.104;2024-03-02T00:36:31;96525.03;;;8.72;79.11
61039;BME280;46919;45.816;3.104;2024-03-02T00:38:57;96524.22;;;8.72;78.68
61039;BME280;46919;45.816;3.104;2024-03-02T00:41:30;96519.63;;;8.72;79.01
61039;BME280;46919;45.816;3.104;2024-03-02T00:46:38;96517.03;;;8.77;78.37
61039;BME280;46919;45.816;3.104;2024-03-02T00:49:18;96532.13;;;8.78;78.17
61039;BME280;46919;45.816;3.104;2024-03-02T00:51:50;96528.13;;;8.81;78.09
61039;BME280;46919;45.816;3.104;2024-03-02T00:54:19;96537.59;;;8.83;77.64
61039;BME280;46919;45.816;3.104;2024-03-02T00:56:45;96533.50;;;8.81;77.79
61039;BME280;46919;45.816;3.104;2024-03-02T00:59:11;96541.34;;;8.82;77.83
61039;BME280;46919;45.816;3.104;2024-03-02T01:01:37;96541.34;;;8.82;77.67
61039;BME280;46919;45.816;3.104;2024-03-02T01:04:02;96532.22;;;8.83;77.53
61039;BME280;46919;45.816;3.104;2024-03-02T01:06:28;96534.63;;;8.85;77.23
61039;BME280;46919;45.816;3.104;2024-03-02T01:08:54;96533.81;;;8.84;77.54
61039;BME280;46919;45.816;3.104;2024-03-02T01:11:20;96534.97;;;8.88;77.16
61039;BME280;46919;45.816;3.104;2024-03-02T01:13:48;96533.34;;;8.87;77.00
61039;BME280;46919;45.816;3.104;2024-03-02T01:16:14;96525.50;;;8.86;77.29
61039;BME280;46919;45.816;3.104;2024-03-02T01:18:41;96531.13;;;8.84;77.22
61039;BME280;46919;45.816;3.104;2024-03-02T01:21:06;96521.44;;;8.83;77.14
61039;BME280;46919;45.816;3.104;2024-03-02T01:23:31;96530.88;;;8.86;77.20
61039;BME280;46919;45.816;3.104;2024-03-02T01:25:57;96526.31;;;8.86;76.87
61039;BME280;46919;45.816;3.104;2024-03-02T01:28:22;96522.56;;;8.87;77.08
61039;BME280;46919;45.816;3.104;2024-03-02T01:30:48;96524.69;;;8.85;77.01
61039;BME280;46919;45.816;3.104;2024-03-02T01:33:14;96526.81;;;8.83;77.15
61039;BME280;46919;45.816;3.104;2024-03-02T01:35:39;96540.84;;;8.85;76.92
61039;BME280;46919;45.816;3.104;2024-03-02T01:38:05;96539.94;;;8.97;75.65
61039;BME280;46919;45.816;3.104;2024-03-02T01:40:36;96544.78;;;8.95;75.53
61039;BME280;46919;45.816;3.104;2024-03-02T01:43:02;96535.09;;;8.99;75.52
61039;BME280;46919;45.816;3.104;2024-03-02T01:45:28;96535.53;;;8.91;75.46
61039;BME280;46919;45.816;3.104;2024-03-02T01:47:54;96527.38;;;8.85;75.88
61039;BME280;46919;45.816;3.104;2024-03-02T01:50:27;96526.81;;;8.83;75.28
61039;BME280;46919;45.816;3.104;2024-03-02T01:52:54;96513.75;;;8.75;75.64
61039;BME280;46919;45.816;3.104;2024-03-02T01:55:20;96513.38;;;8.66;76.74
61039;BME280;46919;45.816;3.104;2024-03-02T01:57:46;96509.22;;;8.59;76.98
61039;BME280;46919;45.816;3.104;2024-03-02T02:00:13;96517.84;;;8.61;76.87
61039;BME280;46919;45.816;3.104;2024-03-02T02:02:38;96512.16;;;8.57;76.48
61039;BME280;46919;45.816;3.104;2024-03-02T02:05:04;96514.28;;;8.55;76.13
61039;BME280;46919;45.816;3.104;2024-03-02T02:07:30;96503.75;;;8.54;76.33
61039;BME280;46919;45.816;3.104;2024-03-02T02:09:55;96504.00;;;8.52;76.35
61039;BME280;46919;45.816;3.104;2024-03-02T02:12:21;96499.34;;;8.47;76.29
61039;BME280;46919;45.816;3.104;2024-03-02T02:14:50;96499.72;;;8.39;76.79
61039;BME280;46919;45.816;3.104;2024-03-02T02:17:15;96485.59;;;8.32;77.51
61039;BME280;46919;45.816;3.104;2024-03-02T02:19:41;96481.44;;;8.24;77.77
61039;BME280;46919;45.816;3.104;2024-03-02T02:22:07;96489.19;;;8.21;78.03
61039;BME280;46919;45.816;3.104;2024-03-02T02:24:32;96489.75;;;8.23;78.11
61039;BME280;46919;45.816;3.104;2024-03-02T02:26:57;96489.75;;;8.23;78.53
61039;BME280;46919;45.816;3.104;2024-03-02T02:29:23;96487.31;;;8.21;78.46
61039;BME280;46919;45.816;3.104;2024-03-02T02:31:48;96485.69;;;8.20;78.67
61039;BME280;46919;45.816;3.104;2024-03-02T02:34:14;96487.78;;;8.18;78.77
61039;BME280;46919;45.816;3.104;2024-03-02T02:36:41;96478.91;;;8.18;79.22
61039;BME280;46919;45.816;3.104;2024-03-02T02:39:10;96481.84;;;8.16;79.37
61039;BME280;46919;45.816;3.104;2024-03-02T02:41:37;96471.34;;;8.14;79.49
61039;BME280;46919;45.816;3.104;2024-03-02T02:44:02;96473.47;;;8.12;80.29
61039;BME280;46919;45.816;3.104;2024-03-02T02:46:28;96468.06;;;8.12;80.48
61039;BME280;46919;45.816;3.104;2024-03-02T02:48:53;96460.00;;;8.12;80.64
61039;BME280;46919;45.816;3.104;2024-03-02T02:51:19;96457.25;;;8.07;81.36
61039;BME280;46919;45.816;3.104;2024-03-02T02:53:44;96461.53;;;8.08;81.38
61039;BME280;46919;45.816;3.104;2024-03-02T02:56:09;96462.03;;;8.05;82.07
61039;BME280;46919;45.816;3.104;2024-03-02T02:58:35;96452.91;;;8.06;81.94
61039;BME280;46919;45.816;3.104;2024-03-02T03:01:00;96456.72;;;8.10;81.91
61039;BME280;46919;45.816;3.104;2024-03-02T03:03:26;96455.34;;;8.08;82.25
61039;BME280;46919;45.816;3.104;2024-03-02T03:05:51;96459.94;;;8.07;82.48
61039;BME280;46919;45.816;3.104;2024-03-02T03:08:16;96471.00;;;8.11;82.21
61039;BME280;46919;45.816;3.104;2024-03-02T03:10:42;96477.28;;;8.16;82.16
61039;BME280;46919;45.816;3.104;2024-03-02T03:13:07;96488.63;;;8.19;82.91
61039;BME280;46919;45.816;3.104;2024-03-02T03:15:35;96480.44;;;8.13;84.80
61039;BME280;46919;45.816;3.104;2024-03-02T03:18:04;96477.59;;;8.03;84.88
61039;BME280;46919;45.816;3.104;2024-03-02T03:20:30;96461.03;;;7.94;83.10
61039;BME280;46919;45.816;3.104;2024-03-02T03:22:56;96451.75;;;7.85;83.75
61039;BME280;46919;45.816;3.104;2024-03-02T03:25:22;96435.25;;;7.82;83.97
61039;BME280;46919;45.816;3.104;2024-03-02T03:27:47;96416.78;;;7.85;83.75
61039;BME280;46919;45.816;3.104;2024-03-02T03:30:13;96419.13;;;7.82;84.66
61039;BME280;46919;45.816;3.104;2024-03-02T03:32:38;96417.50;;;7.80;85.19
61039;BME280;46919;45.816;3.104;2024-03-02T03:35:04;96399.75;;;7.79;85.58
61039;BME280;46919;45.816;3.104;2024-03-02T03:37:30;96403.47;;;7.78;85.56
61039;BME280;46919;45.816;3.104;2024-03-02T03:40:04;96400.88;;;7.84;84.52
61039;BME280;46919;45.816;3.104;2024-03-02T03:42:38;96394.91;;;7.82;84.43
61039;BME280;46919;45.816;3.104;2024-03-02T03:45:04;96391.44;;;7.81;83.35
61039;BME280;46919;45.816;3.104;2024-03-02T03:47:33;96388.50;;;7.83;81.17
61039;BME280;46919;45.816;3.104;2024-03-02T03:49:59;96383.28;;;7.76;81.02
61039;BME280;46919;45.816;3.104;2024-03-02T03:52:24;96383.75;;;7.73;80.40
61039;BME280;46919;45.816;3.104;2024-03-02T03:54:50;96385.91;;;7.71;79.73
61039;BME280;46919;45.816;3.104;2024-03-02T03:57:15;96384.75;;;7.67;79.29
61039;BME280;46919;45.816;3.104;2024-03-02T03:59:41;96369.91;;;7.64;78.35
61039;BME280;46919;45.816;3.104;2024-03-02T04:02:06;96373.97;;;7.67;76.49
61039;BME280;46919;45.816;3.104;2024-03-02T04:04:33;96372.69;;;7.69;74.95
61039;BME280;46919;45.816;3.104;2024-03-02T04:06:58;96367.78;;;7.66;73.09
61039;BME280;46919;45.816;3.104;2024-03-02T04:09:24;96363.47;;;7.65;72.28
61039;BME280;46919;45.816;3.104;2024-03-02T04:11:50;96362.31;;;7.61;72.52
61039;BME280;46919;45.816;3.104;2024-03-02T04:14:16;96354.72;;;7.58;73.73
61039;BME280;46919;45.816;3.104;2024-03-02T04:16:41;96348.72;;;7.51;75.19
61039;BME280;46919;45.816;3.104;2024-03-02T04:19:07;96356.69;;;7.46;76.29
61039;BME280;46919;45.816;3.104;2024-03-02T04:21:32;96355.53;;;7.41;77.01
61039;BME280;46919;45.816;3.104;2024-03-02T04:23:57;96351.94;;;7.36;77.53
61039;BME280;46919;45.816;3.104;2024-03-02T04:26:24;96348.59;;;7.29;78.93
61039;BME280;46919;45.816;3.104;2024-03-02T04:28:51;96339.06;;;7.21;79.57
61039;BME280;46919;45.816;3.104;2024-03-02T04:31:16;96337.09;;;7.16;80.19
61039;BME280;46919;45.816;3.104;2024-03-02T04:33:42;96328.63;;;7.07;80.74
61039;BME280;46919;45.816;3.104;2024-03-02T04:36:08;96325.81;;;7.02;80.59
61039;BME280;46919;45.816;3.104;2024-03-02T04:38:36;96319.56;;;6.97;80.76
61039;BME280;46919;45.816;3.104;2024-03-02T04:41:02;96317.19;;;7.00;80.38
61039;BME280;46919;45.816;3.104;2024-03-02T04:43:27;96317.19;;;7.00;79.63
61039;BME280;46919;45.816;3.104;2024-03-02T04:45:52;96316.88;;;6.97;79.90
61039;BME280;46919;45.816;3.104;2024-03-02T04:48:18;96316.53;;;6.93;79.54
61039;BME280;46919;45.816;3.104;2024-03-02T04:50:44;96318.63;;;6.91;79.32
61039;BME280;46919;45.816;3.104;2024-03-02T04:53:09;96314.34;;;6.90;79.04
61039;BME280;46919;45.816;3.104;2024-03-02T04:55:35;96307.78;;;6.86;78.75
61039;BME280;46919;45.816;3.104;2024-03-02T04:58:20;96311.78;;;6.83;78.46
61039;BME280;46919;45.816;3.104;2024-03-02T05:00:45;96303.22;;;6.86;78.12
61039;BME280;46919;45.816;3.104;2024-03-02T05:03:14;96311.78;;;6.83;77.47
61039;BME280;46919;45.816;3.104;2024-03-02T05:05:39;96309.31;;;6.82;77.23
61039;BME280;46919;45.816;3.104;2024-03-02T05:08:05;96307.34;;;6.77;77.25
61039;BME280;46919;45.816;3.104;2024-03-02T05:10:31;96308.66;;;6.75;77.17
61039;BME280;46919;45.816;3.104;2024-03-02T05:12:56;96304.81;;;6.70;77.38
61039;BME280;46919;45.816;3.104;2024-03-02T05:15:24;96309.13;;;6.71;77.45
61039;BME280;46919;45.816;3.104;2024-03-02T05:17:50;96311.59;;;6.73;77.14
61039;BME280;46919;45.816;3.104;2024-03-02T05:20:16;96306.69;;;6.70;77.28
61039;BME280;46919;45.816;3.104;2024-03-02T05:22:42;96316.63;;;6.69;77.45
61039;BME280;46919;45.816;3.104;2024-03-02T05:25:07;96308.81;;;6.68;77.23
61039;BME280;46919;45.816;3.104;2024-03-02T05:27:34;96306.38;;;6.66;77.40
61039;BME280;46919;45.816;3.104;2024-03-02T05:30:00;96311.72;;;6.66;77.48
61039;BME280;46919;45.816;3.104;2024-03-02T05:32:25;96309.84;;;6.67;77.32
61039;BME280;46919;45.816;3.104;2024-03-02T05:34:51;96315.22;;;6.67;77.11
61039;BME280;46919;45.816;3.104;2024-03-02T05:37:17;96311.72;;;6.66;77.09
61039;BME280;46919;45.816;3.104;2024-03-02T05:39:42;96324.69;;;6.69;76.79
61039;BME280;46919;45.816;3.104;2024-03-02T05:42:10;96314.84;;;6.75;76.73
61039;BME280;46919;45.816;3.104;2024-03-02T05:44:36;96307.34;;;6.77;76.43
61039;BME280;46919;45.816;3.104;2024-03-02T05:47:02;96308.50;;;6.81;76.04
61039;BME280;46919;45.816;3.104;2024-03-02T05:49:28;96309.78;;;6.79;76.16
61039;BME280;46919;45.816;3.104;2024-03-02T05:51:53;96309.31;;;6.82;76.08
61039;BME280;46919;45.816;3.104;2024-03-02T05:54:18;96316.66;;;6.86;75.39
61039;BME280;46919;45.816;3.104;2024-03-02T05:56:44;96318.78;;;6.84;75.49
61039;BME280;46919;45.816;3.104;2024-03-02T05:59:09;96308.75;;;6.80;75.79
61039;BME280;46919;45.816;3.104;2024-03-02T06:01:42;96312.88;;;6.70;76.36
61039;BME280;46919;45.816;3.104;2024-03-02T06:04:11;96315.91;;;6.74;75.97
61039;BME280;46919;45.816;3.104;2024-03-02T06:06:37;96315.91;;;6.74;75.86
61039;BME280;46919;45.816;3.104;2024-03-02T06:09:04;96310.31;;;6.76;75.83
61039;BME280;46919;45.816;3.104;2024-03-02T06:11:39;96311.34;;;6.75;75.78
61039;BME280;46919;45.816;3.104;2024-03-02T06:14:05;96310.78;;;6.73;76.01
61039;BME280;46919;45.816;3.104;2024-03-02T06:16:32;96300.53;;;6.69;76.15
61039;BME280;46919;45.816;3.104;2024-03-02T06:18:58;96305.88;;;6.69;76.33
61039;BME280;46919;45.816;3.104;2024-03-02T06:21:24;96300.28;;;6.71;76.22
61039;BME280;46919;45.816;3.104;2024-03-02T06:23:49;96293.34;;;6.75;76.16
61039;BME280;46919;45.816;3.104;2024-03-02T06:26:15;96288.31;;;6.79;75.95
61039;BME280;46919;45.816;3.104;2024-03-02T06:28:40;96290.69;;;6.75;76.26
61039;BME280;46919;45.816;3.104;2024-03-02T06:31:06;96287.19;;;6.75;76.11
61039;BME280;46919;45.816;3.104;2024-03-02T06:33:31;96292.22;;;6.71;76.44
61039;BME280;46919;45.816;3.104;2024-03-02T06:35:56;96288.72;;;6.70;76.92
61039;BME280;46919;45.816;3.104;2024-03-02T06:38:22;96289.78;;;6.69;76.95
61039;BME280;46919;45.816;3.104;2024-03-02T06:40:47;96294.31;;;6.69;77.22
61039;BME280;46919;45.816;3.104;2024-03-02T06:43:13;96285.94;;;6.65;77.70
61039;BME280;46919;45.816;3.104;2024-03-02T06:45:38;96284.66;;;6.68;78.07
61039;BME280;46919;45.816;3.104;2024-03-02T06:48:04;96281.13;;;6.67;78.49
61039;BME280;46919;45.816;3.104;2024-03-02T06:50:29;96286.38;;;6.74;79.05
61039;BME280;46919;45.816;3.104;2024-03-02T06:52:55;96285.53;;;6.74;79.41
61039;BME280;46919;45.816;3.104;2024-03-02T06:55:21;96288.00;;;6.75;80.57
61039;BME280;46919;45.816;3.104;2024-03-02T06:57:47;96287.19;;;6.75;80.96
61039;BME280;46919;45.816;3.104;2024-03-02T07:00:12;96284.50;;;6.75;81.50
61039;BME280;46919;45.816;3.104;2024-03-02T07:02:39;96271.56;;;6.71;81.87
61039;BME280;46919;45.816;3.104;2024-03-02T07:05:07;96278.09;;;6.76;82.41
61039;BME280;46919;45.816;3.104;2024-03-02T07:07:33;96273.28;;;6.78;82.69
61039;BME280;46919;45.816;3.104;2024-03-02T07:10:00;96274.88;;;6.79;82.60
61039;BME280;46919;45.816;3.104;2024-03-02T07:12:25;96274.66;;;6.80;82.81
61039;BME280;46919;45.816;3.104;2024-03-02T07:14:50;96278.75;;;6.83;82.80
61039;BME280;46919;45.816;3.104;2024-03-02T07:17:22;96278.75;;;6.83;82.89
61039;BME280;46919;45.816;3.104;2024-03-02T07:19:47;96280.94;;;6.86;82.82
61039;BME280;46919;45.816;3.104;2024-03-02T07:22:12;96278.81;;;6.88;83.31
61039;BME280;46919;45.816;3.104;2024-03-02T07:24:42;96279.41;;;6.90;83.57
61039;BME280;46919;45.816;3.104;2024-03-02T07:27:12;96279.03;;;6.98;82.93
61039;BME280;46919;45.816;3.104;2024-03-02T07:29:38;96278.78;;;7.00;83.06
61039;BME280;46919;45.816;3.104;2024-03-02T07:32:04;96282.28;;;7.00;83.24
61039;BME280;46919;45.816;3.104;2024-03-02T07:34:29;96289.84;;;7.03;83.31
61039;BME280;46919;45.816;3.104;2024-03-02T07:36:55;96295.72;;;7.00;83.38
61039;BME280;46919;45.816;3.104;2024-03-02T07:39:21;96293.25;;;6.99;83.59
61039;BME280;46919;45.816;3.104;2024-03-02T07:41:46;96292.94;;;6.95;83.95
61039;BME280;46919;45.816;3.104;2024-03-02T07:44:12;96298.31;;;6.95;84.13
61039;BME280;46919;45.816;3.104;2024-03-02T07:46:42;96292.78;;;7.02;84.04
61039;BME280;46919;45.816;3.104;2024-03-02T07:49:08;96301.59;;;7.14;83.50
61039;BME280;46919;45.816;3.104;2024-03-02T07:51:33;96299.78;;;7.20;83.44
61039;BME280;46919;45.816;3.104;2024-03-02T07:53:58;96299.66;;;7.27;83.12
61039;BME280;46919;45.816;3.104;2024-03-02T07:56:24;96293.81;;;7.30;82.91
61039;BME280;46919;45.816;3.104;2024-03-02T07:58:49;96290.88;;;7.31;82.74
61039;BME280;46919;45.816;3.104;2024-03-02T08:01:15;96295.19;;;7.32;83.34
61039;BME280;46919;45.816;3.104;2024-03-02T08:03:40;96292.50;;;7.32;83.56
61039;BME280;46919;45.816;3.104;2024-03-02T08:06:06;96292.81;;;7.36;83.36
61039;BME280;46919;45.816;3.104;2024-03-02T08:08:31;96290.72;;;7.38;83.31
61039;BME280;46919;45.816;3.104;2024-03-02T08:10:57;96285.91;;;7.40;83.32
61039;BME280;46919;45.816;3.104;2024-03-02T08:13:22;96283.53;;;7.43;83.65
61039;BME280;46919;45.816;3.104;2024-03-02T08:15:48;96287.13;;;7.49;83.63
61039;BME280;46919;45.816;3.104;2024-03-02T08:18:13;96281.59;;;7.56;83.48
61039;BME280;46919;45.816;3.104;2024-03-02T08:20:38;96284.94;;;7.63;83.27
61039;BME280;46919;45.816;3.104;2024-03-02T08:23:04;96281.25;;;7.69;83.46
61039;BME280;46919;45.816;3.104;2024-03-02T08:25:30;96279.19;;;7.76;83.31
61039;BME280;46919;45.816;3.104;2024-03-02T08:27:55;96274.97;;;7.80;83.44
61039;BME280;46919;45.816;3.104;2024-03-02T08:30:21;96272.91;;;7.88;83.72
61039;BME280;46919;45.816;3.104;2024-03-02T08:32:46;96267.03;;;7.91;83.54
61039;BME280;46919;45.816;3.104;2024-03-02T08:35:12;96262.31;;;7.98;83.16
61039;BME280;46919;45.816;3.104;2024-03-02T08:37:40;96259.69;;;8.03;82.66
61039;BME280;46919;45.816;3.104;2024-03-02T08:40:07;96260.53;;;8.09;82.86
61039;BME280;46919;45.816;3.104;2024-03-02T08:42:33;96255.75;;;8.11;82.75
61039;BME280;46919;45.816;3.104;2024-03-02T08:44:58;96251.81;;;8.19;82.76
61039;BME280;46919;45.816;3.104;2024-03-02T08:47:26;96249.28;;;8.34;82.78
61039;BME280;46919;45.816;3.104;2024-03-02T08:49:52;96243.06;;;8.50;81.54
61039;BME280;46919;45.816;3.104;2024-03-02T08:52:17;96239.41;;;8.62;81.04
61039;BME280;46919;45.816;3.104;2024-03-02T08:54:43;96235.25;;;8.76;81.19
61039;BME280;46919;45.816;3.104;2024-03-02T08:57:08;96227.34;;;8.92;80.40
61039;BME280;46919;45.816;3.104;2024-03-02T08:59:33;96226.91;;;9.05;78.85
61039;BME280;46919;45.816;3.104;2024-03-02T09:01:59;96228.59;;;9.11;78.47
61039;BME280;46919;45.816;3.104;2024-03-02T09:04:24;96220.28;;;9.18;78.36
61039;BME280;46919;45.816;3.104;2024-03-02T09:06:50;96218.47;;;9.29;77.61
61039;BME280;46919;45.816;3.104;2024-03-02T09:09:15;96210.16;;;9.35;77.31
61039;BME280;46919;45.816;3.104;2024-03-02T09:11:41;96200.25;;;9.41;76.67
61039;BME280;46919;45.816;3.104;2024-03-02T09:14:06;96191.13;;;9.47;76.25
61039;BME280;46919;45.816;3.104;2024-03-02T09:16:31;96185.72;;;9.47;76.01
61039;BME280;46919;45.816;3.104;2024-03-02T09:18:57;96185.50;;;9.54;75.68
61039;BME280;46919;45.816;3.104;2024-03-02T09:21:22;96179.81;;;9.50;75.44
61039;BME280;46919;45.816;3.104;2024-03-02T09:23:48;96168.25;;;9.55;74.99
61039;BME280;46919;45.816;3.104;2024-03-02T09:26:14;96161.59;;;9.73;74.42
61039;BME280;46919;45.816;3.104;2024-03-02T09:28:43;96152.28;;;9.96;73.84
61039;BME280;46919;45.816;3.104;2024-03-02T09:31:08;96147.75;;;10.17;73.52
61039;BME280;46919;45.816;3.104;2024-03-02T09:33:33;96147.34;;;10.46;73.05
61039;BME280;46919;45.816;3.104;2024-03-02T09:35:59;96134.09;;;10.55;72.08
61039;BME280;46919;45.816;3.104;2024-03-02T09:38:25;96134.41;;;10.68;72.20
61039;BME280;46919;45.816;3.104;2024-03-02T09:40:50;96129.81;;;10.79;71.16
61039;BME280;46919;45.816;3.104;2024-03-02T09:43:16;96110.63;;;10.71;71.14
61039;BME280;46919;45.816;3.104;2024-03-02T09:45:41;96101.44;;;10.66;70.66
61039;BME280;46919;45.816;3.104;2024-03-02T09:48:07;96102.50;;;10.65;70.51
61039;BME280;46919;45.816;3.104;2024-03-02T09:50:33;96082.00;;;10.90;68.81
61039;BME280;46919;45.816;3.104;2024-03-02T09:52:58;96064.91;;;11.26;67.67
61039;BME280;46919;45.816;3.104;2024-03-02T09:55:24;96065.66;;;11.52;66.64
61039;BME280;46919;45.816;3.104;2024-03-02T09:57:50;96057.72;;;11.76;65.48
61039;BME280;46919;45.816;3.104;2024-03-02T10:00:16;96057.47;;;11.67;64.34
61039;BME280;46919;45.816;3.104;2024-03-02T10:02:42;96051.78;;;11.69;62.15
61039;BME280;46919;45.816;3.104;2024-03-02T10:05:11;96046.59;;;11.77;61.80
61039;BME280;46919;45.816;3.104;2024-03-02T10:07:37;96043.81;;;11.98;60.85
61039;BME280;46919;45.816;3.104;2024-03-02T10:10:13;96051.84;;;12.19;60.09
61039;BME280;46919;45.816;3.104;2024-03-02T10:12:39;96049.28;;;12.38;60.47
61039;BME280;46919;45.816;3.104;2024-03-02T10:15:05;96049.22;;;12.43;59.41
61039;BME280;46919;45.816;3.104;2024-03-02T10:17:31;96044.19;;;12.31;59.21
61039;BME280;46919;45.816;3.104;2024-03-02T10:19:57;96032.75;;;11.94;60.06
61039;BME280;46919;45.816;3.104;2024-03-02T10:22:23;96033.09;;;11.72;60.23
61039;BME280;46919;45.816;3.104;2024-03-02T10:24:48;96029.06;;;11.65;60.23
61039;BME280;46919;45.816;3.104;2024-03-02T10:27:22;96025.50;;;11.74;60.32
61039;BME280;46919;45.816;3.104;2024-03-02T10:29:48;96022.75;;;11.85;59.98
61039;BME280;46919;45.816;3.104;2024-03-02T10:32:15;96015.50;;;12.25;58.79
61039;BME280;46919;45.816;3.104;2024-03-02T10:34:42;96002.03;;;12.49;56.99
61039;BME280;46919;45.816;3.104;2024-03-02T10:37:08;96004.91;;;12.63;56.35
61039;BME280;46919;45.816;3.104;2024-03-02T10:39:37;95992.78;;;12.84;55.74
61039;BME280;46919;45.816;3.104;2024-03-02T10:42:05;95986.94;;;13.01;55.66
61039;BME280;46919;45.816;3.104;2024-03-02T10:44:31;95985.09;;;13.21;55.13
61039;BME280;46919;45.816;3.104;2024-03-02T10:47:00;95976.16;;;13.45;53.07
61039;BME280;46919;45.816;3.104;2024-03-02T10:49:26;95979.56;;;13.55;52.56
61039;BME280;46919;45.816;3.104;2024-03-02T10:51:52;95967.44;;;13.72;52.24
61039;BME280;46919;45.816;3.104;2024-03-02T10:54:18;95978.50;;;13.75;52.26
61039;BME280;46919;45.816;3.104;2024-03-02T10:56:44;95971.31;;;13.66;52.01
61039;BME280;46919;45.816;3.104;2024-03-02T10:59:21;95948.34;;;13.77;51.11
61039;BME280;46919;45.816;3.104;2024-03-02T11:01:50;95970.06;;;13.77;49.61
61039;BME280;46919;45.816;3.104;2024-03-02T11:04:18;95944.28;;;13.74;49.87
61039;BME280;46919;45.816;3.104;2024-03-02T11:06:50;95948.09;;;13.92;49.82
61039;BME280;46919;45.816;3.104;2024-03-02T11:09:20;95950.38;;;14.04;48.94
61039;BME280;46919;45.816;3.104;2024-03-02T11:11:52;95933.41;;;14.12;49.13
61039;BME280;46919;45.816;3.104;2024-03-02T11:14:23;95936.34;;;14.16;49.58
61039;BME280;46919;45.816;3.104;2024-03-02T11:16:51;95936.09;;;14.31;48.78
61039;BME280;46919;45.816;3.104;2024-03-02T11:19:17;95924.66;;;14.35;47.19
61039;BME280;46919;45.816;3.104;2024-03-02T11:21:42;95923.00;;;14.20;47.24
61039;BME280;46919;45.816;3.104;2024-03-02T11:26:48;95907.53;;;14.34;47.13
61039;BME280;46919;45.816;3.104;2024-03-02T11:32:01;95911.41;;;14.47;46.53
61039;BME280;46919;45.816;3.104;2024-03-02T11:34:30;95903.88;;;14.58;46.38
61039;BME280;46919;45.816;3.104;2024-03-02T11:36:56;95907.84;;;14.79;46.48
61039;BME280;46919;45.816;3.104;2024-03-02T11:39:22;95899.91;;;14.83;46.17
61039;BME280;46919;45.816;3.104;2024-03-02T11:41:47;95890.31;;;14.72;45.53
61039;BME280;46919;45.816;3.104;2024-03-02T11:44:14;95890.75;;;14.79;46.03
61039;BME280;46919;45.816;3.104;2024-03-02T11:46:40;95884.78;;;15.04;46.35
61039;BME280;46919;45.816;3.104;2024-03-02T11:49:05;95892.34;;;15.08;46.16
61039;BME280;46919;45.816;3.104;2024-03-02T11:51:33;95877.44;;;15.05;46.34
61039;BME280;46919;45.816;3.104;2024-03-02T11:54:01;95889.94;;;14.92;46.71
61039;BME280;46919;45.816;3.104;2024-03-02T11:56:28;95885.09;;;14.89;46.72
61039;BME280;46919;45.816;3.104;2024-03-02T11:58:56;95877.03;;;14.84;46.67
61039;BME280;46919;45.816;3.104;2024-03-02T12:01:23;95872.81;;;14.78;46.83
61039;BME280;46919;45.816;3.104;2024-03-02T12:03:48;95871.81;;;14.74;46.92
61039;BME280;46919;45.816;3.104;2024-03-02T12:06:14;95855.06;;;14.66;46.81
61039;BME280;46919;45.816;3.104;2024-03-02T12:08:40;95859.06;;;14.55;46.73
61039;BME280;46919;45.816;3.104;2024-03-02T12:11:05;95847.41;;;14.68;46.91
61039;BME280;46919;45.816;3.104;2024-03-02T12:13:32;95854.16;;;14.71;46.86
61039;BME280;46919;45.816;3.104;2024-03-02T12:15:58;95851.06;;;14.64;46.87
61039;BME280;46919;45.816;3.104;2024-03-02T12:18:24;95843.16;;;14.48;46.47
61039;BME280;46919;45.816;3.104;2024-03-02T12:20:50;95841.34;;;14.44;46.77
61039;BME280;46919;45.816;3.104;2024-03-02T12:23:22;95823.81;;;14.36;46.86
61039;BME280;46919;45.816;3.104;2024-03-02T12:25:48;95823.69;;;14.41;46.82
61039;BME280;46919;45.816;3.104;2024-03-02T12:28:14;95813.75;;;14.50;46.49
61039;BME280;46919;45.816;3.104;2024-03-02T12:30:39;95814.78;;;14.55;47.15
61039;BME280;46919;45.816;3.104;2024-03-02T12:33:05;95804.88;;;14.59;47.01
61039;BME280;46919;45.816;3.104;2024-03-02T12:35:30;95797.56;;;14.73;47.07
61039;BME280;46919;45.816;3.104;2024-03-02T12:37:56;95792.53;;;14.80;46.39
61039;BME280;46919;45.816;3.104;2024-03-02T12:40:22;95783.28;;;14.67;46.18
61039;BME280;46919;45.816;3.104;2024-03-02T12:42:48;95778.75;;;14.77;46.22
61039;BME280;46919;45.816;3.104;2024-03-02T12:45:15;95783.09;;;14.64;46.43
61039;BME280;46919;45.816;3.104;2024-03-02T12:47:41;95772.78;;;14.75;46.07
61039;BME280;46919;45.816;3.104;2024-03-02T12:50:07;95777.31;;;14.79;46.55
61039;BME280;46919;45.816;3.104;2024-03-02T12:52:33;95765.34;;;14.80;46.13
61039;BME280;46919;45.816;3.104;2024-03-02T12:55:00;95751.69;;;15.08;45.87
61039;BME280;46919;45.816;3.104;2024-03-02T12:57:28;95758.69;;;15.37;45.19
61039;BME280;46919;45.816;3.104;2024-03-02T13:00:04;95749.59;;;15.42;44.78
61039;BME280;46919;45.816;3.104;2024-03-02T13:02:39;95750.44;;;15.73;44.80
61039;BME280;46919;45.816;3.104;2024-03-02T13:05:06;95743.28;;;15.55;45.02
61039;BME280;46919;45.816;3.104;2024-03-02T13:07:36;95756.34;;;15.30;45.63
61039;BME280;46919;45.816;3.104;2024-03-02T13:10:02;95746.47;;;15.34;46.17
61039;BME280;46919;45.816;3.104;2024-03-02T13:12:28;95745.16;;;15.32;45.64